Time;durP1;ratioP1;P1;durP2;ratioP2;P2;SDS_P1;SDS_P2;PMS_P1;PMS_P2;Temp;Humidity;BMP_temperature;BMP_pressure;BME280_temperature;BME280_humidity;BME280_pressure;Samples;Min_cycle;Max_cycle;Signal;HPM_P1;HPM_P2
2022/11/28 00:01:55;;;;;;;30.38;19.92;;;8.10;99.90;;;;;;5069455;28;20103;-70
2022/11/28 00:04:21;;;;;;;29.38;19.67;;;8.10;99.90;;;;;;5069555;28;20095;-70
2022/11/28 00:06:50;;;;;;;28.77;18.42;;;8.10;99.90;;;;;;5065520;28;20480;-70
2022/11/28 00:09:17;;;;;;;30.40;19.33;;;8.10;99.90;;;;;;5069783;28;20058;-70
2022/11/28 00:11:45;;;;;;;28.73;18.92;;;8.10;99.90;;;;;;5066223;28;20025;-70
2022/11/28 00:14:10;;;;;;;30.80;19.40;;;8.10;99.90;;;;;;5057474;28;20082;-71
2022/11/28 00:16:36;;;;;;;29.27;19.80;;;8.10;99.90;;;;;;5064501;28;20103;-71
2022/11/28 00:19:04;;;;;;;29.42;18.63;;;8.10;99.90;;;;;;5067264;28;20024;-70
2022/11/28 00:21:30;;;;;;;29.58;18.85;;;8.20;99.90;;;;;;5049793;28;20033;-70
2022/11/28 00:23:57;;;;;;;27.70;18.98;;;8.10;99.90;;;;;;5061073;28;20025;-69
2022/11/28 00:26:23;;;;;;;30.42;18.58;;;8.10;99.90;;;;;;5068278;28;20244;-69
2022/11/28 00:28:49;;;;;;;27.63;17.17;;;8.20;99.90;;;;;;5069327;28;20341;-70
2022/11/28 00:31:27;;;;;;;25.50;17.02;;;8.20;99.90;;;;;;5068073;28;20036;-70
2022/11/28 00:33:53;;;;;;;24.52;16.83;;;8.20;99.90;;;;;;5058320;28;20028;-70
2022/11/28 00:36:19;;;;;;;24.65;16.15;;;8.20;99.90;;;;;;5068911;28;20032;-70
2022/11/28 00:38:45;;;;;;;24.80;15.63;;;8.20;99.90;;;;;;5056575;28;20036;-70
2022/11/28 00:41:13;;;;;;;25.17;16.08;;;8.20;99.90;;;;;;5067177;28;20029;-70
2022/11/28 00:43:39;;;;;;;24.65;15.98;;;8.20;99.90;;;;;;5055121;28;20028;-70
2022/11/28 00:46:06;;;;;;;27.27;16.40;;;8.30;99.90;;;;;;5068798;28;20057;-70
2022/11/28 00:48:32;;;;;;;27.60;16.52;;;8.30;99.90;;;;;;5068604;28;20024;-71
2022/11/28 00:51:22;;;;;;;25.75;16.52;;;8.20;99.90;;;;;;5069100;28;20029;-70
2022/11/28 00:53:49;;;;;;;24.45;15.23;;;8.30;99.90;;;;;;5069108;28;20025;-70
2022/11/28 00:56:18;;;;;;;24.00;16.10;;;8.30;99.90;;;;;;5069339;28;20029;-71
2022/11/28 00:58:44;;;;;;;25.20;15.77;;;8.30;99.90;;;;;;5069224;28;20465;-70
2022/11/28 01:01:11;;;;;;;22.77;15.32;;;8.30;99.90;;;;;;5069011;28;20074;-69
2022/11/28 01:03:38;;;;;;;23.90;15.60;;;8.40;99.90;;;;;;5068632;28;20428;-71
2022/11/28 01:06:04;;;;;;;22.85;15.15;;;8.40;99.90;;;;;;5061612;28;20385;-70
2022/11/28 01:08:30;;;;;;;25.60;15.88;;;8.40;99.90;;;;;;5062959;28;20425;-70
2022/11/28 01:10:56;;;;;;;22.80;14.68;;;8.40;99.90;;;;;;5067207;28;20124;-70
2022/11/28 01:13:21;;;;;;;22.60;15.10;;;8.40;99.90;;;;;;5069484;28;20488;-70
2022/11/28 01:15:47;;;;;;;21.65;14.63;;;8.50;99.90;;;;;;5069235;28;20079;-69
2022/11/28 01:18:13;;;;;;;22.05;13.85;;;8.50;99.90;;;;;;5055318;28;20029;-70
2022/11/28 01:20:38;;;;;;;21.02;13.73;;;8.50;99.90;;;;;;5072775;28;20039;-70
2022/11/28 01:23:04;;;;;;;20.00;13.32;;;8.50;99.90;;;;;;5059375;28;20044;-70
2022/11/28 01:25:30;;;;;;;19.13;13.13;;;8.50;99.90;;;;;;5062786;28;20025;-70
2022/11/28 01:27:55;;;;;;;20.83;13.68;;;8.60;99.90;;;;;;5062782;28;20823;-70
2022/11/28 01:30:21;;;;;;;21.90;13.93;;;8.60;99.90;;;;;;5071959;28;20112;-70
2022/11/28 01:32:46;;;;;;;19.77;13.63;;;8.60;99.90;;;;;;5059037;28;20021;-70
2022/11/28 01:35:12;;;;;;;21.23;14.57;;;8.70;99.90;;;;;;5063947;28;20028;-70
2022/11/28 01:37:38;;;;;;;22.33;15.13;;;8.70;99.90;;;;;;5063959;28;20035;-70
2022/11/28 01:40:04;;;;;;;23.63;15.65;;;8.70;99.90;;;;;;5070644;28;20021;-70
2022/11/28 01:42:29;;;;;;;22.08;15.90;;;8.70;99.90;;;;;;5058274;28;20029;-70
2022/11/28 01:45:05;;;;;;;24.67;16.23;;;8.80;99.90;;;;;;5066347;28;20135;-70
2022/11/28 01:47:32;;;;;;;29.55;18.75;;;8.80;99.90;;;;;;5061231;28;20053;-70
2022/11/28 01:49:59;;;;;;;28.10;18.52;;;8.80;99.90;;;;;;5066818;28;20369;-70
2022/11/28 01:52:25;;;;;;;31.73;20.42;;;8.80;99.90;;;;;;5072003;28;20085;-70
2022/11/28 01:54:56;;;;;;;30.83;20.48;;;8.80;99.90;;;;;;5066989;28;20419;-70
2022/11/28 01:57:25;;;;;;;35.35;22.08;;;8.90;99.90;;;;;;5056949;28;20104;-70
2022/11/28 01:59:59;;;;;;;34.83;22.30;;;8.90;99.90;;;;;;5071811;28;20472;-71
2022/11/28 02:02:34;;;;;;;36.20;21.83;;;8.90;99.90;;;;;;5067404;28;20448;-70
2022/11/28 02:05:00;;;;;;;34.67;22.20;;;8.90;99.90;;;;;;5060794;28;20037;-70
2022/11/28 02:07:26;;;;;;;36.42;23.10;;;8.90;99.90;;;;;;5065584;28;20047;-70
2022/11/28 02:09:52;;;;;;;35.30;22.50;;;8.90;99.90;;;;;;5060861;28;20179;-70
2022/11/28 02:12:42;;;;;;;34.25;22.48;;;8.90;99.90;;;;;;5065432;28;20100;-69
2022/11/28 02:15:19;;;;;;;33.42;21.02;;;9.00;99.90;;;;;;5053995;28;20127;-70
2022/11/28 02:17:51;;;;;;;32.28;21.02;;;9.00;99.90;;;;;;5065511;28;20098;-70
2022/11/28 02:20:49;;;;;;;32.25;21.27;;;9.00;99.90;;;;;;5063180;28;20036;-70
2022/11/28 02:23:27;;;;;;;35.88;21.67;;;9.00;99.90;;;;;;5067310;28;20252;-70
2022/11/28 02:26:04;;;;;;;32.90;20.98;;;9.00;99.90;;;;;;5062182;28;20052;-70
2022/11/28 02:28:47;;;;;;;37.08;20.65;;;9.00;99.90;;;;;;5058250;28;20052;-70
2022/11/28 02:31:46;;;;;;;33.00;20.65;;;9.00;99.90;;;;;;5084104;28;20425;-70
2022/11/28 02:34:20;;;;;;;29.67;19.15;;;9.10;99.90;;;;;;5071648;28;20029;-70
2022/11/28 02:37:02;;;;;;;29.70;19.27;;;9.10;99.90;;;;;;5070391;28;20029;-70
2022/11/28 02:39:57;;;;;;;26.60;18.65;;;9.10;99.90;;;;;;5060348;28;20389;-69
2022/11/28 02:43:04;;;;;;;26.42;18.35;;;9.10;99.90;;;;;;5068171;28;20354;-70
2022/11/28 02:45:29;;;;;;;24.15;16.38;;;9.10;99.90;;;;;;5059682;28;20112;-70
2022/11/28 02:48:03;;;;;;;22.92;15.82;;;9.10;99.90;;;;;;5064480;28;20111;-69
2022/11/28 02:50:36;;;;;;;22.42;15.15;;;9.10;99.90;;;;;;5056025;28;20511;-70
2022/11/28 02:53:23;;;;;;;20.90;14.82;;;9.10;99.90;;;;;;5065543;28;20393;-70
2022/11/28 02:55:50;;;;;;;20.75;14.82;;;9.20;99.90;;;;;;5066444;28;20028;-70
2022/11/28 02:58:17;;;;;;;22.70;14.40;;;9.10;99.90;;;;;;5069521;28;20104;-69
2022/11/28 03:00:47;;;;;;;22.40;15.63;;;9.20;99.90;;;;;;5067529;28;20029;-70
2022/11/28 03:03:34;;;;;;;21.15;15.20;;;9.20;99.90;;;;;;5070473;28;20469;-71
2022/11/28 03:06:28;;;;;;;24.48;15.63;;;9.20;99.90;;;;;;5056280;28;20519;-70
2022/11/28 03:09:09;;;;;;;22.95;15.80;;;9.20;99.90;;;;;;5064908;28;20115;-69
2022/11/28 03:12:03;;;;;;;21.48;15.77;;;9.20;99.90;;;;;;5060247;28;20056;-70
2022/11/28 03:14:40;;;;;;;22.85;14.65;;;9.20;99.90;;;;;;5057761;28;20074;-70
2022/11/28 03:17:06;;;;;;;21.48;14.82;;;9.20;99.90;;;;;;5069729;28;20043;-70
2022/11/28 03:19:38;;;;;;;19.50;13.98;;;9.20;99.90;;;;;;5067683;28;20078;-70
2022/11/28 03:22:29;;;;;;;19.95;14.18;;;9.20;99.90;;;;;;5060588;28;20091;-70
2022/11/28 03:25:20;;;;;;;22.20;14.95;;;9.20;99.90;;;;;;5069143;28;20077;-70
2022/11/28 03:27:55;;;;;;;23.05;14.75;;;9.20;99.90;;;;;;5067569;28;20071;-69
2022/11/28 03:30:44;;;;;;;20.83;15.03;;;9.20;99.90;;;;;;5063662;28;20021;-69
2022/11/28 03:33:13;;;;;;;22.55;14.88;;;9.20;99.90;;;;;;5064253;28;20035;-70
2022/11/28 03:35:44;;;;;;;20.42;14.30;;;9.20;99.90;;;;;;5063098;28;20111;-70
2022/11/28 03:38:16;;;;;;;18.52;13.77;;;9.20;99.90;;;;;;5068820;28;20028;-70
2022/11/28 03:40:47;;;;;;;18.25;13.45;;;9.20;99.90;;;;;;5057432;28;20016;-70
2022/11/28 03:43:18;;;;;;;19.58;13.40;;;9.20;99.90;;;;;;5067885;28;20107;-70
2022/11/28 03:45:54;;;;;;;19.48;13.88;;;9.10;99.90;;;;;;5060933;28;20029;-70
2022/11/28 03:48:25;;;;;;;19.90;13.77;;;9.10;99.90;;;;;;5056409;28;20033;-69
2022/11/28 03:51:00;;;;;;;19.05;13.82;;;9.10;99.90;;;;;;5070345;28;20040;-70
2022/11/28 03:53:33;;;;;;;21.15;14.68;;;9.10;99.90;;;;;;5061281;28;20036;-70
2022/11/28 03:56:02;;;;;;;23.00;14.65;;;9.10;99.90;;;;;;5059758;28;20097;-70
2022/11/28 03:58:50;;;;;;;21.13;14.70;;;9.10;99.90;;;;;;5058469;28;20039;-70
2022/11/28 04:01:46;;;;;;;21.48;14.20;;;9.10;99.90;;;;;;5070126;28;20048;-69
2022/11/28 04:04:49;;;;;;;23.33;14.85;;;9.10;99.90;;;;;;5060071;28;20085;-70
2022/11/28 04:07:36;;;;;;;23.48;14.38;;;9.10;99.90;;;;;;5057837;28;20032;-68
2022/11/28 04:10:25;;;;;;;24.60;15.30;;;9.10;99.90;;;;;;5063077;28;20040;-70
2022/11/28 04:12:57;;;;;;;21.45;14.90;;;9.10;99.90;;;;;;5069947;28;20029;-70
2022/11/28 04:15:53;;;;;;;23.13;15.23;;;9.10;99.90;;;;;;5064636;28;20028;-70
2022/11/28 04:18:49;;;;;;;22.58;15.60;;;9.10;99.90;;;;;;5053925;28;20673;-70
2022/11/28 04:21:28;;;;;;;24.27;15.48;;;9.10;99.90;;;;;;5049749;28;20124;-70
2022/11/28 04:23:59;;;;;;;22.92;15.77;;;9.10;99.90;;;;;;5065124;28;20032;-70
2022/11/28 04:26:34;;;;;;;24.08;15.40;;;9.00;99.90;;;;;;5050490;28;20384;-69
2022/11/28 04:29:05;;;;;;;24.45;15.70;;;9.10;99.90;;;;;;5062697;28;20443;-70
2022/11/28 04:31:31;;;;;;;24.50;16.90;;;9.10;99.90;;;;;;5069056;28;20024;-70
2022/11/28 04:34:01;;;;;;;25.75;16.75;;;9.10;99.90;;;;;;5063185;28;20033;-70
2022/11/28 04:36:29;;;;;;;26.80;16.85;;;9.10;99.90;;;;;;5054461;28;20021;-70
2022/11/28 04:38:56;;;;;;;30.02;17.55;;;9.00;99.90;;;;;;5062561;28;20051;-70
2022/11/28 04:41:31;;;;;;;64.55;41.35;;;9.00;99.90;;;;;;5054738;28;20033;-70
2022/11/28 04:44:07;;;;;;;21.20;12.25;;;9.10;99.90;;;;;;5069827;28;20485;-69
2022/11/28 04:46:38;;;;;;;28.52;18.15;;;9.10;99.90;;;;;;5069475;28;20449;-70
2022/11/28 04:49:04;;;;;;;28.85;18.88;;;9.10;99.90;;;;;;5056960;28;20413;-70
2022/11/28 04:51:49;;;;;;;28.25;18.63;;;9.10;99.90;;;;;;5074127;28;20021;-70
2022/11/28 04:54:35;;;;;;;32.53;19.02;;;9.10;99.90;;;;;;5072968;28;20551;-70
2022/11/28 04:57:22;;;;;;;29.80;18.02;;;9.10;99.90;;;;;;5073628;28;20040;-70
2022/11/28 04:59:48;;;;;;;31.00;20.00;;;9.10;99.90;;;;;;5059278;28;20024;-70
2022/11/28 05:02:16;;;;;;;31.17;20.15;;;9.10;99.90;;;;;;5073275;28;20031;-69
2022/11/28 05:04:43;;;;;;;33.78;21.02;;;9.00;99.90;;;;;;5073179;28;20020;-70
2022/11/28 05:07:09;;;;;;;34.50;20.65;;;9.00;99.90;;;;;;5073601;28;20092;-70
2022/11/28 05:09:35;;;;;;;35.78;22.05;;;9.00;99.90;;;;;;5073040;28;20131;-70
2022/11/28 05:12:01;;;;;;;39.70;22.70;;;9.00;99.90;;;;;;5065756;28;20025;-69
2022/11/28 05:14:27;;;;;;;38.85;21.95;;;9.00;99.90;;;;;;5053310;28;20512;-70
2022/11/28 05:16:52;;;;;;;36.15;22.02;;;9.00;99.90;;;;;;5052886;28;20025;-71
2022/11/28 05:19:18;;;;;;;40.10;22.92;;;9.00;99.90;;;;;;5057287;28;20483;-70
2022/11/28 05:21:43;;;;;;;41.92;24.50;;;9.00;99.90;;;;;;5073399;28;20365;-69
2022/11/28 05:24:09;;;;;;;41.03;23.33;;;9.00;99.90;;;;;;5055867;28;20420;-70
2022/11/28 05:26:36;;;;;;;39.35;23.35;;;9.00;99.90;;;;;;5052656;28;20024;-69
2022/11/28 05:29:03;;;;;;;43.72;23.48;;;9.00;99.90;;;;;;5066469;28;20036;-70
2022/11/28 05:31:29;;;;;;;48.30;25.38;;;9.00;99.90;;;;;;5053534;28;20023;-70
2022/11/28 05:33:55;;;;;;;53.17;25.95;;;9.10;99.90;;;;;;5053051;28;20576;-70
2022/11/28 05:36:21;;;;;;;51.35;25.35;;;9.10;99.90;;;;;;5067292;28;20111;-69
2022/11/28 05:38:47;;;;;;;49.13;25.38;;;9.10;99.90;;;;;;5061959;28;20103;-70
2022/11/28 05:41:28;;;;;;;57.33;26.80;;;9.10;99.90;;;;;;5078470;28;20063;-70
2022/11/28 05:43:55;;;;;;;53.78;25.23;;;9.10;99.90;;;;;;5089329;28;20026;-70
2022/11/28 05:46:21;;;;;;;46.13;23.42;;;9.10;99.90;;;;;;5085042;28;20047;-70
2022/11/28 05:48:47;;;;;;;44.65;24.95;;;9.10;99.90;;;;;;5078648;28;20029;-70
2022/11/28 05:51:13;;;;;;;46.70;24.45;;;9.10;99.90;;;;;;5085816;28;20032;-70
2022/11/28 05:53:38;;;;;;;52.00;25.23;;;9.10;99.90;;;;;;5087968;28;20099;-71
2022/11/28 05:56:09;;;;;;;47.97;25.73;;;9.10;99.90;;;;;;5077701;28;20376;-70
2022/11/28 05:58:34;;;;;;;50.50;26.27;;;9.10;99.90;;;;;;5090043;28;20099;-70
2022/11/28 06:01:15;;;;;;;51.45;26.20;;;9.10;99.90;;;;;;5084398;28;20108;-70
2022/11/28 06:03:40;;;;;;;54.40;26.63;;;9.10;99.90;;;;;;5086480;28;20012;-71
2022/11/28 06:06:32;;;;;;;55.40;27.10;;;9.10;99.90;;;;;;5087400;28;20742;-70
2022/11/28 06:08:58;;;;;;;51.70;26.85;;;9.10;99.90;;;;;;5067644;28;20064;-71
2022/11/28 06:11:26;;;;;;;57.30;28.45;;;9.10;99.90;;;;;;5070592;28;20024;-71
2022/11/28 06:13:52;;;;;;;58.67;29.52;;;9.10;99.90;;;;;;5063547;28;20048;-72
2022/11/28 06:16:20;;;;;;;59.90;28.58;;;9.10;99.90;;;;;;5056739;28;20060;-72
2022/11/28 06:18:46;;;;;;;63.53;30.27;;;9.10;99.90;;;;;;5060787;28;20399;-73
2022/11/28 06:21:14;;;;;;;60.50;30.13;;;9.10;99.90;;;;;;5074448;28;20016;-71
2022/11/28 06:23:40;;;;;;;61.88;30.20;;;9.10;99.90;;;;;;5064607;28;20070;-71
2022/11/28 06:26:08;;;;;;;60.70;30.55;;;9.10;99.90;;;;;;5066792;28;20090;-72
2022/11/28 06:28:34;;;;;;;64.05;31.02;;;9.10;99.90;;;;;;5068632;28;20463;-70
2022/11/28 06:30:59;;;;;;;60.00;30.55;;;9.10;99.90;;;;;;5062866;28;20091;-71
2022/11/28 06:33:25;;;;;;;71.28;31.10;;;9.10;99.90;;;;;;5073032;28;20028;-71
2022/11/28 06:35:51;;;;;;;66.07;30.77;;;9.10;99.90;;;;;;5077262;28;20101;-71
2022/11/28 06:38:16;;;;;;;72.07;31.50;;;9.10;99.90;;;;;;5070435;28;20079;-72
2022/11/28 06:40:42;;;;;;;68.30;30.98;;;9.10;99.90;;;;;;5067156;28;20021;-71
2022/11/28 06:43:07;;;;;;;71.70;31.48;;;9.10;99.90;;;;;;5063269;28;20025;-72
2022/11/28 06:45:34;;;;;;;61.45;29.27;;;9.10;99.90;;;;;;5078686;28;20116;-69
2022/11/28 06:48:00;;;;;;;69.30;29.10;;;9.10;99.90;;;;;;5077756;28;20405;-68
2022/11/28 06:50:25;;;;;;;67.03;29.02;;;9.10;99.90;;;;;;5065046;28;20048;-71
2022/11/28 06:52:53;;;;;;;74.07;30.80;;;9.20;99.90;;;;;;5072826;28;20020;-69
2022/11/28 06:55:19;;;;;;;73.60;30.40;;;9.20;99.90;;;;;;5075386;28;20012;-69
2022/11/28 06:57:44;;;;;;;80.03;30.48;;;9.20;99.90;;;;;;5085260;28;20046;-69
2022/11/28 07:00:11;;;;;;;84.40;32.88;;;9.20;99.90;;;;;;5071214;28;20017;-69
2022/11/28 07:02:37;;;;;;;95.43;32.85;;;9.20;99.90;;;;;;5075974;28;20039;-70
2022/11/28 07:05:03;;;;;;;91.18;33.15;;;9.20;99.90;;;;;;5071154;28;20021;-69
2022/11/28 07:07:28;;;;;;;93.28;32.88;;;9.20;99.90;;;;;;5066524;28;20028;-69
2022/11/28 07:09:54;;;;;;;81.13;32.53;;;9.20;99.90;;;;;;5071372;28;20063;-68
2022/11/28 07:12:20;;;;;;;82.95;33.20;;;9.30;99.90;;;;;;5064428;28;20016;-70
2022/11/28 07:14:45;;;;;;;86.93;32.53;;;9.30;99.90;;;;;;5074044;28;20037;-69
2022/11/28 07:17:11;;;;;;;91.20;33.63;;;9.20;99.90;;;;;;5082093;28;20024;-69
2022/11/28 07:19:37;;;;;;;90.22;34.10;;;9.30;99.90;;;;;;5083544;28;20021;-69
2022/11/28 07:22:03;;;;;;;96.05;35.72;;;9.30;99.90;;;;;;5079999;28;20031;-70
2022/11/28 07:24:29;;;;;;;93.90;34.90;;;9.30;99.90;;;;;;5077645;28;20016;-69
2022/11/28 07:26:55;;;;;;;92.95;33.55;;;9.30;99.90;;;;;;5052508;28;20396;-69
2022/11/28 07:29:23;;;;;;;92.57;34.30;;;9.30;99.90;;;;;;5056104;28;20425;-69
2022/11/28 07:31:49;;;;;;;88.82;34.75;;;9.30;99.90;;;;;;5056946;28;20100;-70
2022/11/28 07:34:14;;;;;;;91.40;35.08;;;9.30;99.90;;;;;;5066452;28;20668;-70
2022/11/28 07:36:40;;;;;;;103.88;36.67;;;9.30;99.90;;;;;;5070045;28;20024;-70
2022/11/28 07:39:09;;;;;;;93.25;35.67;;;9.30;99.90;;;;;;5066667;28;20480;-70
2022/11/28 07:41:35;;;;;;;104.68;36.80;;;9.30;99.90;;;;;;5069386;28;20499;-70
2022/11/28 07:44:03;;;;;;;96.70;36.28;;;9.30;99.90;;;;;;5056796;28;20021;-70
2022/11/28 07:46:30;;;;;;;97.97;36.20;;;9.40;99.90;;;;;;5071087;28;20412;-69
2022/11/28 07:48:56;;;;;;;103.22;36.78;;;9.40;99.90;;;;;;5068187;28;20040;-69
2022/11/28 07:51:25;;;;;;;104.20;35.83;;;9.40;99.90;;;;;;5062193;28;20413;-69
2022/11/28 07:53:51;;;;;;;107.35;35.80;;;9.40;99.90;;;;;;5052174;28;20028;-70
2022/11/28 07:56:19;;;;;;;109.47;36.58;;;9.40;99.90;;;;;;5070076;28;20017;-70
2022/11/28 07:58:46;;;;;;;113.28;37.05;;;9.40;99.90;;;;;;5064367;28;20516;-70
2022/11/28 08:01:18;;;;;;;114.60;37.45;;;9.40;99.90;;;;;;5066640;28;20029;-70
2022/11/28 08:03:44;;;;;;;122.07;36.92;;;9.40;99.90;;;;;;5067865;28;20032;-70
2022/11/28 08:06:11;;;;;;;111.50;36.65;;;9.40;99.90;;;;;;5064286;28;20036;-70
2022/11/28 08:08:37;;;;;;;123.10;36.85;;;9.40;99.90;;;;;;5067687;28;20028;-70
2022/11/28 08:11:04;;;;;;;124.40;38.88;;;9.50;99.90;;;;;;5065299;28;20144;-70
2022/11/28 08:13:31;;;;;;;122.13;37.75;;;9.50;99.90;;;;;;5066726;28;20030;-70
2022/11/28 08:15:57;;;;;;;131.70;39.13;;;9.50;99.90;;;;;;5070392;28;20108;-69
2022/11/28 08:18:23;;;;;;;129.70;38.80;;;9.50;99.90;;;;;;5068250;28;20124;-69
2022/11/28 08:20:48;;;;;;;133.02;39.63;;;9.50;99.90;;;;;;5069637;28;20035;-70
2022/11/28 08:23:14;;;;;;;137.70;40.38;;;9.60;99.90;;;;;;5061183;28;20389;-69
2022/11/28 08:25:41;;;;;;;134.20;40.85;;;9.60;99.90;;;;;;5049352;28;20108;-70
2022/11/28 08:28:06;;;;;;;135.57;40.50;;;9.60;99.90;;;;;;5062694;28;20040;-69
2022/11/28 08:30:32;;;;;;;137.70;40.47;;;9.60;99.90;;;;;;5060488;28;20021;-69
2022/11/28 08:32:58;;;;;;;135.23;41.55;;;9.60;99.90;;;;;;5069028;28;20021;-70
2022/11/28 08:35:23;;;;;;;133.38;41.78;;;9.70;99.90;;;;;;5060848;28;20051;-70
2022/11/28 08:37:49;;;;;;;129.40;41.97;;;9.70;99.90;;;;;;5064402;28;20028;-70
2022/11/28 08:40:15;;;;;;;129.98;41.10;;;9.70;99.90;;;;;;5070890;28;20146;-70
2022/11/28 08:42:40;;;;;;;123.97;40.17;;;9.70;99.90;;;;;;5069055;28;20325;-70
2022/11/28 08:45:09;;;;;;;126.18;40.30;;;9.70;99.90;;;;;;5068520;28;20021;-70
2022/11/28 08:47:34;;;;;;;131.20;41.58;;;9.70;99.90;;;;;;5068456;28;20404;-70
2022/11/28 08:50:00;;;;;;;136.82;42.00;;;9.80;99.90;;;;;;5064196;28;20028;-69
2022/11/28 08:52:25;;;;;;;132.05;41.47;;;9.80;99.90;;;;;;5068546;28;20029;-70
2022/11/28 08:54:51;;;;;;;123.43;40.42;;;9.80;99.90;;;;;;5069545;28;20020;-70
2022/11/28 08:57:17;;;;;;;116.53;38.50;;;9.80;99.90;;;;;;5069513;28;20525;-70
2022/11/28 08:59:42;;;;;;;112.70;38.88;;;9.80;99.90;;;;;;5062016;28;20028;-70
2022/11/28 09:02:14;;;;;;;111.22;38.00;;;9.90;99.90;;;;;;5061113;28;20369;-70
2022/11/28 09:04:39;;;;;;;116.90;38.60;;;9.90;99.90;;;;;;5066386;28;20029;-70
2022/11/28 09:07:05;;;;;;;111.55;39.40;;;9.90;99.90;;;;;;5069067;28;20062;-70
2022/11/28 09:09:30;;;;;;;116.38;39.35;;;9.90;99.90;;;;;;5067127;28;20028;-70
2022/11/28 09:11:56;;;;;;;105.75;37.08;;;9.90;99.90;;;;;;5069211;28;20032;-70
2022/11/28 09:14:21;;;;;;;98.28;35.70;;;9.90;99.90;;;;;;5068902;28;20475;-70
2022/11/28 09:16:47;;;;;;;97.70;34.40;;;9.90;99.90;;;;;;5067926;28;20357;-70
2022/11/28 09:19:12;;;;;;;89.43;33.53;;;10.00;99.90;;;;;;5075546;28;20032;-69
2022/11/28 09:21:39;;;;;;;90.85;32.75;;;10.00;99.90;;;;;;5061327;28;20392;-70
2022/11/28 09:24:05;;;;;;;77.75;30.33;;;10.00;99.90;;;;;;5054686;28;20021;-70
2022/11/28 09:26:32;;;;;;;72.13;28.60;;;10.00;99.90;;;;;;5067843;28;20078;-71
2022/11/28 09:28:58;;;;;;;70.72;27.70;;;10.00;99.90;;;;;;5063533;28;20437;-70
2022/11/28 09:31:23;;;;;;;82.97;30.70;;;10.00;99.90;;;;;;5067007;28;20054;-69
2022/11/28 09:33:49;;;;;;;74.97;30.05;;;10.10;99.90;;;;;;5069063;28;20017;-70
2022/11/28 09:36:17;;;;;;;71.20;27.42;;;10.10;99.90;;;;;;5065869;28;20033;-70
2022/11/28 09:38:43;;;;;;;62.38;25.98;;;10.10;99.90;;;;;;5073334;28;20436;-70
2022/11/28 09:41:27;;;;;;;65.55;27.52;;;10.10;99.90;;;;;;5064285;28;20024;-70
2022/11/28 09:43:57;;;;;;;60.55;26.63;;;10.10;99.90;;;;;;5071865;28;20024;-72
2022/11/28 09:46:31;;;;;;;70.72;28.00;;;10.20;99.90;;;;;;5058246;28;20048;-70
2022/11/28 09:49:01;;;;;;;71.47;28.58;;;10.20;99.90;;;;;;5066198;28;20064;-70
2022/11/28 09:51:26;;;;;;;67.07;27.58;;;10.10;99.90;;;;;;5058358;28;20032;-70
2022/11/28 09:54:15;;;;;;;63.65;27.38;;;10.20;99.90;;;;;;5076748;28;20107;-70
2022/11/28 09:56:43;;;;;;;67.68;27.67;;;10.20;99.90;;;;;;5076148;28;20502;-70
2022/11/28 09:59:25;;;;;;;60.42;27.08;;;10.10;99.90;;;;;;5063949;28;20435;-70
2022/11/28 10:02:37;;;;;;;65.07;28.40;;;10.10;99.90;;;;;;5060133;28;20468;-70
2022/11/28 10:05:31;;;;;;;67.28;28.33;;;10.10;99.90;;;;;;5020684;28;20767;-71
2022/11/28 10:08:09;;;;;;;65.80;27.13;;;10.20;99.90;;;;;;4994893;28;20042;-70
2022/11/28 10:10:49;;;;;;;59.42;26.10;;;10.20;99.90;;;;;;5022741;28;20049;-70
2022/11/28 10:13:30;;;;;;;63.80;27.73;;;10.20;99.90;;;;;;5020575;28;20022;-70
2022/11/28 10:16:23;;;;;;;69.97;29.98;;;10.20;99.90;;;;;;5017889;28;20181;-70
2022/11/28 10:18:58;;;;;;;69.78;29.00;;;10.20;99.90;;;;;;5016318;28;20421;-70
2022/11/28 10:21:27;;;;;;;;;;;10.20;99.90;;;;;;5025413;28;20075;-70
2022/11/28 10:23:58;;;;;;;73.65;30.30;;;10.20;99.90;;;;;;5023239;28;19932;-70
2022/11/28 10:26:29;;;;;;;69.55;29.63;;;10.20;99.90;;;;;;5021829;28;20543;-69
2022/11/28 10:28:57;;;;;;;77.03;31.38;;;10.30;99.90;;;;;;5016205;28;20044;-70
2022/11/28 10:31:35;;;;;;;75.57;31.67;;;10.30;99.90;;;;;;5016047;28;20536;-70
2022/11/28 10:34:06;;;;;;;80.05;32.38;;;10.30;99.90;;;;;;5020182;28;20033;-70
2022/11/28 10:36:49;;;;;;;78.80;32.10;;;10.30;99.90;;;;;;5049884;28;20115;-70
2022/11/28 10:39:15;;;;;;;78.63;31.63;;;10.30;99.90;;;;;;5059920;28;20033;-70
2022/11/28 10:42:10;;;;;;;84.88;34.10;;;10.30;99.90;;;;;;5059890;28;20028;-70
2022/11/28 10:44:56;;;;;;;85.85;34.08;;;10.40;99.90;;;;;;5063364;28;20099;-70
2022/11/28 10:47:40;;;;;;;86.68;33.35;;;10.40;99.90;;;;;;5068730;28;20032;-70
2022/11/28 10:50:20;;;;;;;88.55;33.75;;;10.50;99.90;;;;;;5067246;28;20439;-69
2022/11/28 10:53:00;;;;;;;81.68;32.13;;;10.50;99.90;;;;;;5061799;28;20021;-70
2022/11/28 10:55:35;;;;;;;75.22;31.75;;;10.60;99.90;;;;;;5061815;28;20020;-69
2022/11/28 10:58:06;;;;;;;87.97;33.73;;;10.60;99.90;;;;;;5061988;28;20652;-70
2022/11/28 11:00:34;;;;;;;82.22;33.10;;;10.70;99.90;;;;;;5071146;28;20024;-69
2022/11/28 11:03:02;;;;;;;79.22;32.40;;;10.70;99.90;;;;;;5072658;28;20401;-70
2022/11/28 11:05:31;;;;;;;78.32;30.77;;;10.70;99.90;;;;;;5071382;28;20028;-69
2022/11/28 11:08:02;;;;;;;72.32;31.33;;;10.70;99.90;;;;;;5062723;28;20052;-70
2022/11/28 11:10:36;;;;;;;70.32;29.88;;;10.80;99.90;;;;;;5063932;28;20045;-70
2022/11/28 11:13:14;;;;;;;75.60;29.73;;;10.90;99.90;;;;;;5070561;28;20051;-70
2022/11/28 11:15:40;;;;;;;65.68;29.13;;;10.90;99.90;;;;;;5057648;28;20083;-70
2022/11/28 11:18:24;;;;;;;67.22;28.90;;;10.90;99.90;;;;;;5065093;28;20567;-70
2022/11/28 11:20:51;;;;;;;65.55;27.95;;;10.90;99.90;;;;;;5071092;28;20029;-70
2022/11/28 11:23:21;;;;;;;64.40;30.05;;;10.90;99.90;;;;;;5070923;28;20047;-70
2022/11/28 11:25:57;;;;;;;71.82;29.23;;;10.90;99.90;;;;;;5070305;28;20035;-71
2022/11/28 11:28:36;;;;;;;72.20;33.33;;;10.90;99.90;;;;;;5070530;28;20070;-70
2022/11/28 11:31:14;;;;;;;75.53;32.70;;;10.90;99.90;;;;;;5057920;28;20037;-69
2022/11/28 11:33:41;;;;;;;71.65;33.25;;;10.90;99.90;;;;;;5069743;28;20102;-70
2022/11/28 11:36:27;;;;;;;79.88;34.17;;;10.90;99.90;;;;;;5069728;28;20028;-70
2022/11/28 11:39:05;;;;;;;74.30;32.38;;;11.00;99.90;;;;;;5073409;28;20031;-70
2022/11/28 11:41:32;;;;;;;78.68;33.45;;;11.00;99.90;;;;;;5060912;28;20029;-69
2022/11/28 11:44:17;;;;;;;76.78;33.75;;;11.00;99.90;;;;;;5070027;28;20016;-70
2022/11/28 11:46:51;;;;;;;79.90;32.90;;;11.00;99.90;;;;;;5069867;28;20060;-69
2022/11/28 11:49:33;;;;;;;80.88;34.22;;;11.00;99.90;;;;;;5053131;28;20041;-70
2022/11/28 11:52:21;;;;;;;69.97;31.63;;;11.00;99.90;;;;;;5069752;28;20488;-70
2022/11/28 11:54:56;;;;;;;73.13;32.05;;;11.10;99.90;;;;;;5055655;28;20028;-70
2022/11/28 11:57:34;;;;;;;68.13;31.42;;;11.10;99.90;;;;;;5070260;28;20066;-70
2022/11/28 12:00:09;;;;;;;69.55;32.00;;;11.10;99.90;;;;;;5058163;28;20032;-69
2022/11/28 12:02:52;;;;;;;64.63;29.70;;;11.20;99.90;;;;;;5072647;28;20128;-69
2022/11/28 12:05:19;;;;;;;71.50;29.20;;;11.20;99.90;;;;;;5068678;28;20033;-70
2022/11/28 12:07:59;;;;;;;63.58;27.10;;;11.30;99.90;;;;;;5059490;28;20040;-71
2022/11/28 12:10:29;;;;;;;56.70;24.77;;;11.40;99.90;;;;;;5068835;28;20036;-70
2022/11/28 12:12:55;;;;;;;57.92;23.02;;;11.40;99.90;;;;;;5074130;28;20039;-70
2022/11/28 12:15:37;;;;;;;50.58;20.65;;;11.50;99.90;;;;;;5068281;28;20024;-69
2022/11/28 12:18:23;;;;;;;51.20;20.38;;;11.60;99.90;;;;;;5076541;28;20498;-70
2022/11/28 12:21:12;;;;;;;50.00;21.58;;;11.60;99.90;;;;;;5071107;28;20086;-70
2022/11/28 12:23:53;;;;;;;54.83;20.20;;;11.70;99.90;;;;;;5062999;28;20481;-69
2022/11/28 12:26:43;;;;;;;55.25;19.67;;;11.80;99.90;;;;;;5070892;28;20032;-70
2022/11/28 12:29:37;;;;;;;53.33;19.30;;;11.80;99.90;;;;;;5065083;28;20385;-70
2022/11/28 12:32:24;;;;;;;44.17;17.73;;;11.80;99.90;;;;;;5066155;28;20048;-70
2022/11/28 12:35:05;;;;;;;39.95;16.58;;;11.80;99.90;;;;;;5069419;28;20021;-70
2022/11/28 12:37:52;;;;;;;45.20;16.77;;;11.80;99.90;;;;;;5066906;28;20021;-70
2022/11/28 12:40:41;;;;;;;46.55;15.88;;;11.80;99.90;;;;;;5060193;28;20021;-71
2022/11/28 12:43:16;;;;;;;42.47;14.50;;;11.80;99.90;;;;;;5066790;28;20021;-70
2022/11/28 12:46:13;;;;;;;44.05;15.55;;;11.90;99.90;;;;;;5063419;28;20024;-70
2022/11/28 12:49:05;;;;;;;48.55;16.20;;;11.90;99.90;;;;;;5067524;28;20043;-69
2022/11/28 12:51:49;;;;;;;42.33;15.63;;;11.90;99.90;;;;;;5066990;28;20025;-69
2022/11/28 12:54:41;;;;;;;47.97;15.85;;;11.90;99.90;;;;;;5067049;28;20024;-70
2022/11/28 12:57:40;;;;;;;48.72;16.63;;;11.90;99.90;;;;;;5056693;28;20032;-70
2022/11/28 13:00:09;;;;;;;41.97;14.98;;;11.90;99.90;;;;;;5058277;28;20040;-69